createdAt,value
2022-12-27T00:03:55.667Z,26.75
2022-12-27T00:09:00.502Z,28.75
2022-12-27T00:14:05.952Z,30.25
2022-12-27T00:19:10.662Z,32.75
2022-12-27T00:24:15.188Z,39.75
2022-12-27T00:29:19.642Z,32.25
2022-12-27T00:34:24.185Z,30.25
2022-12-27T00:39:28.869Z,33.00
2022-12-27T00:44:33.326Z,33.75
2022-12-27T00:49:38.062Z,31.75
2022-12-27T00:54:42.683Z,31.75
2022-12-27T00:59:47.172Z,23.50
2022-12-27T01:04:52.006Z,42.00
2022-12-27T01:09:56.372Z,33.00
2022-12-27T01:15:00.839Z,29.00
2022-12-27T01:20:05.659Z,28.00
2022-12-27T01:25:10.233Z,32.25
2022-12-27T01:30:14.791Z,30.50
2022-12-27T01:35:19.225Z,29.75
2022-12-27T01:40:23.699Z,28.25
2022-12-27T01:45:29.432Z,27.50
2022-12-27T01:50:35.559Z,29.00
2022-12-27T01:56:02.891Z,28.50
2022-12-27T02:01:09.479Z,30.25
2022-12-27T02:06:14.819Z,27.50
2022-12-27T02:11:19.538Z,25.25
2022-12-27T02:16:24.398Z,26.25
2022-12-27T02:21:49.005Z,32.25
2022-12-27T02:26:53.964Z,34.00
2022-12-27T02:31:58.529Z,41.25
2022-12-27T02:37:06.579Z,42.25
2022-12-27T02:42:30.700Z,41.75
2022-12-27T02:47:53.199Z,48.75
2022-12-27T02:53:07.840Z,49.00
2022-12-27T02:58:20.778Z,49.00
2022-12-27T03:03:44.838Z,42.00
2022-12-27T03:08:55.528Z,44.50
2022-12-27T03:14:37.169Z,44.25
2022-12-27T03:20:07.712Z,43.50
2022-12-27T03:25:31.496Z,44.75
2022-12-27T03:30:55.744Z,40.50
2022-12-27T03:36:32.046Z,39.25
2022-12-27T03:41:57.535Z,46.50
2022-12-27T03:47:04.931Z,44.25
2022-12-27T03:52:09.795Z,42.25
2022-12-27T03:57:17.707Z,53.00
2022-12-27T04:02:22.879Z,52.50
2022-12-27T04:07:27.457Z,54.75
2022-12-27T04:12:49.752Z,51.00
2022-12-27T04:18:11.841Z,55.00
2022-12-27T04:23:34.148Z,41.00
2022-12-27T04:28:56.773Z,55.25
2022-12-27T04:34:19.006Z,52.25
2022-12-27T04:39:23.183Z,48.25
2022-12-27T04:44:45.609Z,49.75
2022-12-27T04:50:08.079Z,49.25
2022-12-27T04:55:15.253Z,48.50
2022-12-27T05:00:38.231Z,50.25
2022-12-27T05:05:43.457Z,49.25
2022-12-27T05:11:05.699Z,42.00
2022-12-27T05:16:10.080Z,46.00
2022-12-27T05:21:14.485Z,45.25
2022-12-27T05:26:25.379Z,44.75
2022-12-27T05:31:31.344Z,45.25
2022-12-27T05:36:35.901Z,41.25
2022-12-27T05:41:40.257Z,44.25
2022-12-27T05:46:44.674Z,40.75
2022-12-27T05:51:49.115Z,43.00
2022-12-27T05:56:53.416Z,44.50
2022-12-27T06:01:57.883Z,41.00
2022-12-27T06:07:02.338Z,39.50
2022-12-27T06:12:06.799Z,34.75
2022-12-27T06:17:11.079Z,29.50
2022-12-27T06:22:15.415Z,36.00
2022-12-27T06:27:19.877Z,34.00
2022-12-27T06:32:24.906Z,31.25
2022-12-27T06:37:29.209Z,35.50
2022-12-27T06:42:33.761Z,32.25
2022-12-27T06:47:38.359Z,32.75
2022-12-27T06:52:43.170Z,32.00
2022-12-27T06:57:47.639Z,29.50
2022-12-27T07:02:52.034Z,21.00
2022-12-27T07:07:56.451Z,27.50
2022-12-27T07:13:00.917Z,22.50
2022-12-27T07:18:05.199Z,28.75
2022-12-27T07:23:11.932Z,21.00
2022-12-27T07:28:19.884Z,23.75
2022-12-27T07:33:24.192Z,23.25
2022-12-27T07:38:28.969Z,23.00
2022-12-27T07:43:38.038Z,21.50
2022-12-27T07:48:43.402Z,27.75
2022-12-27T07:53:49.646Z,26.75
2022-12-27T07:58:54.421Z,25.50
2022-12-27T08:03:58.818Z,24.25
2022-12-27T08:09:08.314Z,18.25
2022-12-27T08:14:12.590Z,21.75
2022-12-27T08:19:16.979Z,22.50
2022-12-27T08:24:21.460Z,25.25
2022-12-27T08:29:26.196Z,25.00
2022-12-27T08:34:30.524Z,27.50
2022-12-27T08:39:37.629Z,26.50
2022-12-27T08:44:42.039Z,41.50
2022-12-27T08:49:46.319Z,26.75
2022-12-27T08:54:50.681Z,30.00
2022-12-27T08:59:54.992Z,31.50
2022-12-27T09:04:59.228Z,36.50
2022-12-27T09:10:03.563Z,34.75
2022-12-27T09:15:08.062Z,38.75
2022-12-27T09:20:13.700Z,42.25
2022-12-27T09:25:17.867Z,49.25
2022-12-27T09:30:22.087Z,41.75
2022-12-27T09:35:26.281Z,37.75
2022-12-27T09:40:31.668Z,39.75
2022-12-27T09:45:41.883Z,47.00
2022-12-27T09:50:51.591Z,44.00
2022-12-27T09:55:59.503Z,52.75
2022-12-27T10:01:04.436Z,49.75
2022-12-27T10:06:23.870Z,48.50
2022-12-27T10:11:40.287Z,49.25
2022-12-27T10:16:53.107Z,58.00
2022-12-27T10:22:03.506Z,56.25
2022-12-27T10:27:15.287Z,51.00
2022-12-27T10:32:19.773Z,49.25
2022-12-27T10:37:24.311Z,47.75
2022-12-27T10:42:28.986Z,51.00
2022-12-27T10:47:33.088Z,49.25
2022-12-27T10:52:37.507Z,43.50
2022-12-27T10:57:42.093Z,38.50
2022-12-27T11:03:02.130Z,44.00
2022-12-27T11:08:23.426Z,39.50
2022-12-27T11:13:27.635Z,49.00
2022-12-27T11:18:32.734Z,39.25
2022-12-27T11:23:39.407Z,34.50
2022-12-27T11:28:46.203Z,37.50
2022-12-27T11:33:54.971Z,34.00
2022-12-27T11:38:59.942Z,33.25
2022-12-27T11:44:10.293Z,31.50
2022-12-27T11:49:35.615Z,33.50
2022-12-27T11:54:39.931Z,34.50
2022-12-27T11:59:45.356Z,31.75
2022-12-27T12:05:04.397Z,35.25
2022-12-27T12:10:24.348Z,34.75
2022-12-27T12:15:31.715Z,37.00
2022-12-27T12:20:50.528Z,40.75
2022-12-27T12:26:05.501Z,41.00
2022-12-27T12:31:16.751Z,31.75
2022-12-27T12:36:39.555Z,32.25
2022-12-27T12:41:52.385Z,35.75
2022-12-27T12:47:15.458Z,31.75
2022-12-27T12:52:36.896Z,30.00
2022-12-27T12:58:02.293Z,35.00
2022-12-27T13:03:23.762Z,31.75
2022-12-27T13:08:28.505Z,38.50
2022-12-27T13:13:41.587Z,37.25
2022-12-27T13:18:49.343Z,43.00
2022-12-27T13:24:07.226Z,42.50
2022-12-27T13:29:21.603Z,45.25
2022-12-27T13:34:41.798Z,38.25
2022-12-27T13:40:04.934Z,35.25
2022-12-27T13:45:38.323Z,38.00
2022-12-27T13:51:01.905Z,35.75
2022-12-27T13:56:43.143Z,40.00
2022-12-27T14:01:31.235Z,38.75
2022-12-27T14:06:49.971Z,42.50
2022-12-27T14:12:10.099Z,44.00
2022-12-27T14:17:30.590Z,43.25
2022-12-27T14:22:54.420Z,43.25
2022-12-27T14:27:58.844Z,45.50
2022-12-27T14:33:04.448Z,45.00
2022-12-27T14:38:21.515Z,48.00
2022-12-27T14:43:44.299Z,43.25
2022-12-27T14:49:00.756Z,45.75
2022-12-27T14:54:06.551Z,44.00
2022-12-27T14:59:29.204Z,40.50
2022-12-27T15:04:40.721Z,45.50
2022-12-27T15:09:53.782Z,48.75
2022-12-27T15:14:58.705Z,45.50
2022-12-27T15:20:12.770Z,46.50
2022-12-27T15:25:26.779Z,46.25
2022-12-27T15:30:49.262Z,44.00
2022-12-27T15:36:16.166Z,44.25
2022-12-27T15:41:39.467Z,40.75
2022-12-27T15:47:00.331Z,44.00
2022-12-27T15:52:11.634Z,47.25
2022-12-27T15:57:25.501Z,37.50
2022-12-27T16:02:33.806Z,39.00
2022-12-27T16:07:40.354Z,32.50
2022-12-27T16:12:45.008Z,38.25
2022-12-27T16:17:58.849Z,42.00
2022-12-27T16:23:06.751Z,38.25
2022-12-27T16:28:12.505Z,34.25
2022-12-27T16:33:32.673Z,42.00
2022-12-27T16:38:38.843Z,37.75
2022-12-27T16:43:55.827Z,36.00
2022-12-27T16:49:15.135Z,30.75
2022-12-27T16:54:37.828Z,32.00
2022-12-27T17:00:14.732Z,25.00
2022-12-27T17:05:19.224Z,33.75
2022-12-27T17:10:33.334Z,33.50
2022-12-27T17:15:43.501Z,33.00
2022-12-27T17:20:56.400Z,35.50
2022-12-27T17:26:08.095Z,35.00
2022-12-27T17:31:27.954Z,28.75
2022-12-27T17:36:54.505Z,28.75
2022-12-27T17:42:35.765Z,25.75
2022-12-27T17:47:43.269Z,24.25
2022-12-27T17:53:22.206Z,26.75
2022-12-27T17:58:35.650Z,23.75
2022-12-27T18:03:47.317Z,23.75
2022-12-27T18:08:52.310Z,24.75
2022-12-27T18:14:00.053Z,28.00
2022-12-27T18:19:05.001Z,24.25
2022-12-27T18:24:25.340Z,21.75
2022-12-27T18:29:30.453Z,22.75
2022-12-27T18:34:37.753Z,23.00
2022-12-27T18:39:43.435Z,20.50
2022-12-27T18:44:49.849Z,23.75
2022-12-27T18:49:58.594Z,23.75
2022-12-27T18:55:08.955Z,20.75
2022-12-27T19:00:23.600Z,27.50
2022-12-27T19:05:29.709Z,20.00
2022-12-27T19:10:34.787Z,21.00
2022-12-27T19:15:44.839Z,25.25
2022-12-27T19:20:57.383Z,22.50
2022-12-27T19:26:01.460Z,22.75
2022-12-27T19:31:07.394Z,27.25
2022-12-27T19:36:11.625Z,17.00
2022-12-27T19:41:16.269Z,19.00
2022-12-27T19:46:22.901Z,20.00
2022-12-27T19:51:31.777Z,18.50
2022-12-27T19:56:35.916Z,22.75
2022-12-27T20:01:40.506Z,23.50
2022-12-27T20:06:45.495Z,19.75
2022-12-27T20:11:52.453Z,21.00
2022-12-27T20:16:57.164Z,17.25
2022-12-27T20:22:03.123Z,20.00
2022-12-27T20:27:07.322Z,19.00
2022-12-27T20:32:11.918Z,20.00
2022-12-27T20:37:21.178Z,19.00
2022-12-27T20:42:28.460Z,18.25
2022-12-27T20:47:32.596Z,20.75
2022-12-27T20:52:39.729Z,20.25
2022-12-27T20:57:43.848Z,19.50
2022-12-27T21:02:49.217Z,25.50
2022-12-27T21:07:53.688Z,16.50
2022-12-27T21:12:57.701Z,19.50
2022-12-27T21:18:01.894Z,18.50
2022-12-27T21:23:06.079Z,20.00
2022-12-27T21:28:10.367Z,16.75
2022-12-27T21:33:14.431Z,16.75
2022-12-27T21:38:18.463Z,18.00
2022-12-27T21:43:22.548Z,20.50
2022-12-27T21:48:26.940Z,16.25
2022-12-27T21:53:30.977Z,18.50
2022-12-27T21:58:36.158Z,15.00
2022-12-27T22:03:41.168Z,21.50
2022-12-27T22:08:46.249Z,19.75
2022-12-27T22:13:50.777Z,16.00
2022-12-27T22:18:57.180Z,16.25
2022-12-27T22:24:03.126Z,16.75
2022-12-27T22:29:07.912Z,16.00
2022-12-27T22:34:12.159Z,18.50
2022-12-27T22:39:16.196Z,15.25
2022-12-27T22:44:20.212Z,15.25
2022-12-27T22:49:24.223Z,16.00
2022-12-27T22:55:05.554Z,15.00
2022-12-27T22:59:52.299Z,16.00
2022-12-27T23:04:56.388Z,16.75
2022-12-27T23:10:00.451Z,14.00
2022-12-27T23:15:04.590Z,19.50
2022-12-27T23:20:09.053Z,17.75
2022-12-27T23:25:13.122Z,18.25
2022-12-27T23:30:17.358Z,18.00
2022-12-27T23:35:21.457Z,17.50
2022-12-27T23:40:25.481Z,16.75
2022-12-27T23:45:29.575Z,18.00
2022-12-27T23:50:33.625Z,18.00
2022-12-27T23:55:37.726Z,18.50
